Time;durP1;ratioP1;P1;durP2;ratioP2;P2;SDS_P1;SDS_P2;PMS_P1;PMS_P2;Temp;Humidity;BMP_temperature;BMP_pressure;BME280_temperature;BME280_humidity;BME280_pressure;Samples;Min_cycle;Max_cycle;Signal;HPM_P1;HPM_P2
2022/12/02 00:01:14;;;;;;;;;20.25;16.00;;;;;7.15;68.79;102164.03;5079716;27;45359;-92
2022/12/02 00:03:39;;;;;;;;;26.25;18.75;;;;;7.13;68.74;102176.13;5080254;27;45263;-93
2022/12/02 00:06:12;;;;;;;;;25.25;18.50;;;;;7.12;69.09;102166.59;5079369;27;47025;-92
2022/12/02 00:08:38;;;;;;;;;30.50;16.75;;;;;7.11;69.28;102164.88;5053016;28;45497;-93
2022/12/02 00:11:22;;;;;;;;;26.00;18.00;;;;;7.12;69.40;102164.00;5042633;28;45330;-93
2022/12/02 00:13:48;;;;;;;;;25.25;18.75;;;;;7.11;69.48;102157.13;5060065;28;45638;-93
2022/12/02 00:16:21;;;;;;;;;26.25;17.75;;;;;7.13;69.67;102155.41;5059090;28;47159;-92
2022/12/02 00:18:48;;;;;;;;;20.00;17.50;;;;;7.17;69.18;102151.13;5059239;28;45451;-92
2022/12/02 00:21:13;;;;;;;;;28.25;22.75;;;;;7.14;69.62;102149.34;5059310;28;45360;-93
2022/12/02 00:23:38;;;;;;;;;28.00;22.25;;;;;7.14;69.87;102151.09;5059329;28;45333;-93
2022/12/02 00:26:04;;;;;;;;;28.00;18.00;;;;;7.15;69.63;102150.22;5060093;28;50120;-93
2022/12/02 00:28:29;;;;;;;;;34.50;20.25;;;;;7.14;69.59;102153.66;5062694;28;45507;-93
2022/12/02 00:30:55;;;;;;;;;28.75;21.50;;;;;7.12;69.92;102148.47;5046016;28;45429;-93
2022/12/02 00:33:20;;;;;;;;;25.50;21.25;;;;;7.11;69.83;102151.94;5062693;28;45581;-93
2022/12/02 00:35:46;;;;;;;;;36.25;23.50;;;;;7.10;69.93;102138.97;5045270;28;54494;-92
2022/12/02 00:38:11;;;;;;;;;41.75;25.00;;;;;7.10;69.89;102139.81;5062382;28;45246;-92
2022/12/02 00:40:36;;;;;;;;;34.00;25.25;;;;;7.09;70.00;102130.31;5059788;28;45445;-92
2022/12/02 00:48:30;;;;;;;;;30.50;19.75;;;;;7.01;70.46;102129.41;5064924;28;45480;-93
2022/12/02 00:50:55;;;;;;;;;34.50;22.25;;;;;7.04;70.46;102125.97;5062120;28;45410;-92
2022/12/02 00:53:21;;;;;;;;;29.00;22.00;;;;;7.04;70.82;102119.06;5062531;28;45409;-92
2022/12/02 00:55:46;;;;;;;;;32.50;22.00;;;;;7.05;70.27;102120.78;5062172;28;46549;-93
2022/12/02 00:58:12;;;;;;;;;34.25;23.50;;;;;7.06;70.67;102119.09;5045685;28;45811;-92
2022/12/02 01:00:37;;;;;;;;;35.75;26.25;;;;;7.08;70.53;102130.31;5062593;28;45466;-92
2022/12/02 01:03:03;;;;;;;;;29.25;17.75;;;;;7.04;70.63;102124.25;5062401;28;46502;-94
2022/12/02 01:05:28;;;;;;;;;29.50;22.00;;;;;7.03;70.57;102121.66;5079711;28;46494;-92
2022/12/02 01:07:53;;;;;;;;;31.25;21.50;;;;;7.03;70.66;102117.31;5079679;28;55182;-93
2022/12/02 01:10:19;;;;;;;;;38.25;26.25;;;;;7.04;70.69;102115.59;5062232;28;45410;-93
2022/12/02 01:12:44;;;;;;;;;34.75;20.25;;;;;7.07;71.10;102115.63;5062427;28;45332;-92
2022/12/02 01:15:10;;;;;;;;;28.50;21.50;;;;;7.10;71.20;102115.66;5062047;28;49543;-93
2022/12/02 01:17:35;;;;;;;;;33.50;24.75;;;;;7.11;70.80;102117.38;5062057;28;45716;-93
2022/12/02 01:20:01;;;;;;;;;38.00;21.50;;;;;7.10;70.52;102113.94;5044852;28;45364;-93
2022/12/02 01:22:26;;;;;;;;;37.75;18.50;;;;;7.11;71.19;102113.09;5045254;28;45280;-92
2022/12/02 01:24:52;;;;;;;;;36.25;24.00;;;;;7.13;70.62;102115.66;5044978;28;47164;-93
2022/12/02 01:27:17;;;;;;;;;24.00;19.00;;;;;7.14;70.70;102112.25;5061633;28;45446;-93
2022/12/02 01:29:42;;;;;;;;;35.25;23.00;;;;;7.10;70.78;102105.31;5062258;28;45286;-92
2022/12/02 01:32:08;;;;;;;;;35.50;25.75;;;;;7.11;70.66;102104.44;5044952;28;45308;-92
2022/12/02 01:34:33;;;;;;;;;30.50;20.00;;;;;7.10;70.79;102113.06;5062048;28;46346;-93
2022/12/02 01:36:59;;;;;;;;;31.00;22.00;;;;;7.09;70.42;102113.91;5045309;28;45268;-92
2022/12/02 01:39:25;;;;;;;;;32.00;20.00;;;;;7.08;70.14;102117.38;5061761;28;45315;-93
2022/12/02 01:41:50;;;;;;;;;21.25;18.75;;;;;7.05;70.41;102114.75;5052124;27;61079;-93
2022/12/02 01:44:15;;;;;;;;;32.75;23.00;;;;;7.02;70.37;102112.13;5064628;27;56188;-93
2022/12/02 01:46:41;;;;;;;;;23.50;19.75;;;;;7.00;70.69;102114.69;5064462;27;52152;-93
2022/12/02 01:49:06;;;;;;;;;37.50;26.75;;;;;7.01;70.73;102118.19;5064967;27;45342;-93
2022/12/02 01:51:32;;;;;;;;;25.75;22.50;;;;;7.01;70.47;102113.00;5065085;27;45258;-93
2022/12/02 01:53:57;;;;;;;;;32.00;25.00;;;;;6.99;70.56;102118.16;5064918;27;47229;-92
2022/12/02 01:56:27;;;;;;;;;33.50;23.00;;;;;6.98;70.62;102113.81;5082114;27;45302;-93
2022/12/02 01:58:53;;;;;;;;;29.75;24.25;;;;;6.98;70.46;102113.81;5081644;27;45305;-93
2022/12/02 02:01:30;;;;;;;;;28.50;20.00;;;;;6.98;70.62;102121.59;5065013;27;45662;-93
2022/12/02 02:03:56;;;;;;;;;29.75;23.25;;;;;6.97;70.62;102119.88;5081331;27;47245;-93
2022/12/02 02:06:26;;;;;;;;;37.00;21.00;;;;;6.99;70.69;102123.34;5064552;27;45504;-94
2022/12/02 02:08:52;;;;;;;;;26.00;16.00;;;;;7.00;71.08;102122.47;5064875;27;45405;-93
2022/12/02 02:11:18;;;;;;;;;27.75;18.75;;;;;7.04;70.65;102120.78;5054591;28;45307;-92
2022/12/02 02:13:44;;;;;;;;;26.50;20.25;;;;;7.05;70.75;102112.16;5044630;28;47069;-92
2022/12/02 02:16:09;;;;;;;;;32.75;20.50;;;;;7.05;70.66;102115.63;5061241;28;45614;-92
2022/12/02 02:18:34;;;;;;;;;34.25;21.00;;;;;7.03;70.38;102109.56;5060350;28;60725;-93
2022/12/02 02:21:00;;;;;;;;;26.50;19.50;;;;;7.01;70.64;102103.50;5061254;28;45498;-93
2022/12/02 02:23:26;;;;;;;;;33.00;21.00;;;;;7.03;70.35;102098.34;5061251;28;46843;-92
2022/12/02 02:25:57;;;;;;;;;45.75;28.25;;;;;7.01;70.32;102100.91;5044596;28;45360;-93
2022/12/02 02:28:23;;;;;;;;;31.75;20.75;;;;;7.02;70.36;102101.78;5044548;28;45408;-93
2022/12/02 02:30:54;;;;;;;;;27.25;19.50;;;;;7.00;70.47;102099.16;5044295;28;50179;-92
2022/12/02 02:33:20;;;;;;;;;30.25;18.00;;;;;6.98;70.41;102101.78;5060703;28;47709;-92
2022/12/02 02:35:46;;;;;;;;;30.25;22.25;;;;;6.97;70.05;102089.66;5060823;28;45550;-93
2022/12/02 02:38:15;;;;;;;;;33.25;22.25;;;;;7.00;70.09;102095.72;5044396;28;45393;-93
2022/12/02 02:40:41;;;;;;;;;27.25;20.50;;;;;6.97;70.20;102079.31;5040668;28;45370;-92
2022/12/02 02:43:06;;;;;;;;;22.75;16.25;;;;;6.99;70.76;102087.09;5057336;28;45572;-92
2022/12/02 02:45:34;;;;;;;;;29.75;21.25;;;;;7.01;70.32;102087.97;5040262;28;45535;-93
2022/12/02 02:48:02;;;;;;;;;29.00;19.75;;;;;7.03;70.36;102075.91;5041012;28;45350;-92
2022/12/02 02:50:28;;;;;;;;;33.50;22.50;;;;;7.05;70.27;102091.47;5039477;28;45460;-92
2022/12/02 02:52:54;;;;;;;;;22.00;17.25;;;;;7.07;70.19;102084.56;5022487;28;47211;-92
2022/12/02 02:55:22;;;;;;;;;21.75;17.50;;;;;7.08;70.25;102083.72;5022238;28;45413;-93
2022/12/02 02:57:48;;;;;;;;;32.00;21.00;;;;;7.04;70.26;102080.25;5055418;28;45273;-93
2022/12/02 03:00:15;;;;;;;;;24.50;13.25;;;;;7.02;70.25;102074.19;5038519;28;45372;-93
2022/12/02 03:02:43;;;;;;;;;27.00;16.75;;;;;7.04;69.80;102076.75;5038996;28;46384;-93
2022/12/02 03:05:08;;;;;;;;;23.75;18.75;;;;;7.04;70.30;102079.34;5038760;28;45491;-93
2022/12/02 03:07:34;;;;;;;;;30.75;20.25;;;;;7.04;69.69;102074.16;5055635;28;45406;-93
2022/12/02 03:10:00;;;;;;;;;29.00;19.75;;;;;7.00;69.87;102072.44;5039022;28;45199;-92
2022/12/02 03:12:25;;;;;;;;;30.75;25.25;;;;;7.00;69.64;102060.34;5040473;28;47224;-92
2022/12/02 03:14:51;;;;;;;;;26.50;15.25;;;;;7.01;70.02;102064.69;5041687;28;45364;-92
2022/12/02 03:17:17;;;;;;;;;29.25;19.25;;;;;7.02;70.10;102069.00;5059288;28;45532;-93
2022/12/02 03:19:42;;;;;;;;;33.50;22.75;;;;;7.03;69.81;102064.69;5058577;28;45234;-93
2022/12/02 03:22:08;;;;;;;;;27.25;20.25;;;;;7.02;69.84;102063.84;5058575;28;46904;-92
2022/12/02 03:24:34;;;;;;;;;37.75;15.75;;;;;7.00;69.83;102060.34;5041831;28;45944;-92
2022/12/02 03:27:00;;;;;;;;;36.25;21.25;;;;;7.01;70.14;102061.22;5058977;28;45518;-92
2022/12/02 03:29:27;;;;;;;;;28.00;19.75;;;;;7.01;69.77;102053.47;5041728;28;45469;-92
2022/12/02 03:31:52;;;;;;;;;33.50;20.25;;;;;7.02;69.68;102062.94;5058460;28;45516;-93
2022/12/02 03:34:18;;;;;;;;;28.75;23.00;;;;;7.03;70.05;102057.78;5058852;28;45371;-93
2022/12/02 03:36:43;;;;;;;;;29.75;21.00;;;;;7.05;70.15;102047.44;5058986;28;45458;-93
2022/12/02 03:39:09;;;;;;;;;26.25;23.00;;;;;7.06;69.52;102049.19;5058317;28;45487;-92
2022/12/02 03:41:35;;;;;;;;;28.75;21.50;;;;;7.09;69.73;102041.41;5058092;28;45498;-92
2022/12/02 03:44:00;;;;;;;;;35.00;21.00;;;;;7.07;69.65;102037.97;5041301;28;45310;-93
2022/12/02 03:46:26;;;;;;;;;25.00;16.00;;;;;7.04;69.54;102037.94;5058735;28;45760;-92
2022/12/02 03:48:52;;;;;;;;;29.00;19.75;;;;;7.02;69.32;102035.34;5058758;28;45240;-92
2022/12/02 03:51:18;;;;;;;;;32.75;17.75;;;;;7.01;69.68;102035.34;4995396;28;1321624;-93
2022/12/02 03:53:44;;;;;;;;;29.50;22.75;;;;;6.98;69.59;102037.06;5060118;28;45429;-93
2022/12/02 03:56:09;;;;;;;;;23.00;16.75;;;;;7.01;70.00;102043.09;5073431;27;45532;-92
2022/12/02 03:58:46;;;;;;;;;25.25;21.50;;;;;7.02;69.57;102032.75;5062943;27;45361;-92
2022/12/02 04:01:12;;;;;;;;;30.75;19.00;;;;;7.00;69.23;102031.84;5080996;27;48251;-91
2022/12/02 04:03:38;;;;;;;;;28.75;22.00;;;;;6.96;69.01;102031.00;5083624;27;45367;-92
2022/12/02 04:06:03;;;;;;;;;27.00;21.75;;;;;6.93;69.70;102027.53;5066629;27;45301;-93
2022/12/02 04:08:29;;;;;;;;;31.50;17.25;;;;;6.94;69.42;102029.25;5083716;27;45420;-93
2022/12/02 04:10:54;;;;;;;;;38.75;22.25;;;;;6.94;69.57;102024.06;5076704;28;48307;-93
2022/12/02 04:13:20;;;;;;;;;28.25;22.00;;;;;6.95;69.78;102023.22;5062780;28;45337;-93
2022/12/02 04:15:45;;;;;;;;;28.25;21.50;;;;;6.95;69.88;102013.72;5063168;28;45368;-93
2022/12/02 04:18:10;;;;;;;;;31.25;17.75;;;;;6.98;69.83;102015.44;5081027;28;45368;-93
2022/12/02 04:20:36;;;;;;;;;31.50;14.50;;;;;6.98;69.37;102013.75;5045884;28;48464;-92
2022/12/02 04:23:01;;;;;;;;;30.25;20.75;;;;;7.02;69.70;102005.97;5046158;28;45252;-93
2022/12/02 04:25:27;;;;;;;;;26.00;16.75;;;;;7.03;69.54;102003.41;5046314;28;45283;-93
2022/12/02 04:27:52;;;;;;;;;35.00;19.75;;;;;7.03;69.26;101997.38;5062655;28;45229;-93
2022/12/02 04:30:17;;;;;;;;;30.50;20.75;;;;;7.02;69.52;102001.69;5062818;28;48603;-93
2022/12/02 04:32:43;;;;;;;;;27.00;19.50;;;;;7.05;69.73;102000.84;5080704;28;45209;-92
2022/12/02 04:35:08;;;;;;;;;27.25;21.75;;;;;7.05;69.25;102004.28;5079776;28;50324;-93
2022/12/02 04:37:34;;;;;;;;;28.75;21.50;;;;;7.05;69.47;102011.19;5063053;28;45349;-92
2022/12/02 04:39:59;;;;;;;;;30.00;23.00;;;;;7.03;69.63;102011.19;5062050;28;60662;-93
2022/12/02 04:42:24;;;;;;;;;27.25;19.50;;;;;7.03;69.77;102002.56;5061759;28;45848;-93
2022/12/02 04:44:50;;;;;;;;;28.75;19.00;;;;;7.01;69.71;102001.69;5064627;27;45437;-93
2022/12/02 04:47:15;;;;;;;;;35.00;22.75;;;;;6.98;69.32;101999.91;5101174;27;45296;-93
2022/12/02 04:49:41;;;;;;;;;30.75;21.50;;;;;6.97;69.82;101999.06;5066012;27;47216;-93
2022/12/02 04:52:06;;;;;;;;;24.50;18.50;;;;;6.97;69.68;101993.03;5082790;27;45406;-92
2022/12/02 04:54:32;;;;;;;;;31.75;22.50;;;;;7.00;69.73;101999.94;5066070;27;45364;-93
2022/12/02 04:56:57;;;;;;;;;25.50;21.00;;;;;6.99;69.90;101996.50;5100713;27;45359;-93
2022/12/02 04:59:22;;;;;;;;;31.50;19.50;;;;;6.98;69.79;101998.22;5082488;27;45458;-93
2022/12/02 05:01:48;;;;;;;;;24.25;17.25;;;;;6.96;69.95;101993.88;5082200;27;45399;-92
2022/12/02 05:04:13;;;;;;;;;29.25;19.00;;;;;6.96;69.76;101991.28;5082743;27;45411;-93
2022/12/02 05:06:38;;;;;;;;;28.75;21.75;;;;;6.96;69.54;101986.09;5082761;27;45298;-92
2022/12/02 05:09:04;;;;;;;;;34.25;18.75;;;;;6.93;69.64;101984.38;5082464;27;50084;-93
2022/12/02 05:11:32;;;;;;;;;30.50;22.75;;;;;6.94;69.99;101982.66;5070503;28;45553;-92
2022/12/02 05:13:57;;;;;;;;;32.00;20.00;;;;;6.94;70.47;101980.06;5045501;28;45525;-93
2022/12/02 05:16:23;;;;;;;;;26.25;22.25;;;;;6.99;69.96;101980.97;5062218;28;45282;-92
2022/12/02 05:18:48;;;;;;;;;32.00;21.50;;;;;7.01;69.92;101968.88;5061597;28;54063;-92
2022/12/02 05:21:13;;;;;;;;;26.50;18.00;;;;;7.03;69.98;101976.66;5080061;28;45434;-92
2022/12/02 05:23:39;;;;;;;;;38.75;22.50;;;;;7.03;69.85;101968.91;5061458;28;45367;-93
2022/12/02 05:26:05;;;;;;;;;29.75;19.00;;;;;7.04;69.67;101968.91;5061561;28;51156;-92
2022/12/02 05:28:30;;;;;;;;;28.25;22.00;;;;;7.01;69.75;101971.47;5062159;28;45447;-92
2022/12/02 05:30:56;;;;;;;;;36.50;22.50;;;;;7.00;69.89;101967.13;5044855;28;45686;-92
2022/12/02 05:33:21;;;;;;;;;28.25;20.00;;;;;7.00;69.73;101954.19;5045231;28;45377;-92
2022/12/02 05:35:47;;;;;;;;;28.50;23.50;;;;;7.01;70.10;101961.13;5044988;28;45359;-93
2022/12/02 05:38:12;;;;;;;;;37.00;24.50;;;;;7.01;69.60;101955.94;5044948;28;47160;-92
2022/12/02 05:40:38;;;;;;;;;34.25;19.50;;;;;7.01;69.71;101948.16;5062298;27;45394;-93
2022/12/02 05:43:18;;;;;;;;;32.00;25.50;;;;;7.01;69.72;101940.41;5081997;27;45416;-93
2022/12/02 05:45:44;;;;;;;;;26.00;16.50;;;;;7.02;69.48;101949.03;5081821;27;45318;-93
2022/12/02 05:48:11;;;;;;;;;38.00;23.50;;;;;7.01;69.60;101958.53;5099863;27;45584;-93
2022/12/02 05:50:36;;;;;;;;;25.25;19.50;;;;;7.01;69.94;101950.75;5099631;27;45417;-93
2022/12/02 05:53:03;;;;;;;;;29.25;22.00;;;;;7.03;69.77;101948.19;5064997;27;45395;-93
2022/12/02 05:55:29;;;;;;;;;33.75;20.25;;;;;7.07;70.47;101949.94;5064657;27;45425;-93
2022/12/02 05:57:58;;;;;;;;;48.25;21.75;;;;;7.09;69.99;101941.28;5065033;27;48448;-93
2022/12/02 06:00:24;;;;;;;;;46.25;26.25;;;;;7.12;70.35;101948.22;5081498;27;45914;-92
2022/12/02 06:02:52;;;;;;;;;30.25;22.75;;;;;7.15;70.07;101945.63;5082144;27;45879;-92
2022/12/02 06:05:31;;;;;;;;;38.00;24.25;;;;;7.15;69.88;101937.88;5065030;27;45497;-93
2022/12/02 06:08:00;;;;;;;;;33.50;20.25;;;;;7.14;69.79;101938.75;5064842;27;48414;-92
2022/12/02 06:10:28;;;;;;;;;30.00;23.25;;;;;7.12;69.79;101941.31;5078346;27;45414;-92
2022/12/02 06:12:58;;;;;;;;;34.00;23.25;;;;;7.10;69.65;101944.78;5044309;28;45369;-92
2022/12/02 06:15:23;;;;;;;;;27.00;23.00;;;;;7.06;69.21;101943.88;5061364;28;45477;-93
2022/12/02 06:17:49;;;;;;;;;38.75;25.75;;;;;7.07;69.74;101944.75;5044341;28;47209;-92
2022/12/02 06:20:28;;;;;;;;;30.75;25.25;;;;;7.08;69.35;101938.72;5044004;28;45675;-92
2022/12/02 06:22:54;;;;;;;;;26.00;25.00;;;;;7.07;69.82;101932.66;5061118;27;45415;-92
2022/12/02 06:25:28;;;;;;;;;40.50;23.00;;;;;7.09;70.06;101930.94;5060169;28;45472;-92
2022/12/02 06:28:11;;;;;;;;;29.00;22.00;;;;;7.10;70.10;101937.00;5060824;28;47575;-92
2022/12/02 06:30:36;;;;;;;;;36.75;23.00;;;;;7.06;69.83;101930.94;5044227;28;46035;-93
2022/12/02 06:33:02;;;;;;;;;33.25;27.00;;;;;7.04;69.64;101936.94;5044044;28;45564;-92
2022/12/02 06:35:30;;;;;;;;;38.00;24.50;;;;;7.01;69.83;101927.47;5043757;28;54068;-92
2022/12/02 06:37:58;;;;;;;;;34.25;21.25;;;;;7.00;69.79;101933.47;5060775;28;45475;-92
2022/12/02 06:40:28;;;;;;;;;42.25;24.75;;;;;6.98;70.05;101948.16;5060835;28;45325;-92
2022/12/02 06:42:56;;;;;;;;;30.50;17.00;;;;;6.93;69.98;101936.94;5060979;28;45327;-92
2022/12/02 06:45:30;;;;;;;;;41.75;22.75;;;;;6.92;69.77;101930.00;5044169;28;45497;-92
2022/12/02 06:48:06;;;;;;;;;37.25;27.50;;;;;6.91;70.08;101930.84;5060864;28;45808;-93
2022/12/02 06:50:40;;;;;;;;;38.50;22.75;;;;;6.91;70.34;101925.66;5078690;28;45412;-92
2022/12/02 06:53:08;;;;;;;;;34.50;22.75;;;;;6.93;70.04;101931.75;5070920;28;45229;-92
2022/12/02 06:55:35;;;;;;;;;36.00;23.25;;;;;6.94;70.23;101931.72;5060424;28;45356;-92
2022/12/02 06:58:22;;;;;;;;;32.00;24.00;;;;;6.98;70.38;101928.31;5043637;28;47025;-92
2022/12/02 07:00:51;;;;;;;;;36.50;25.25;;;;;7.00;69.88;101930.91;5060225;28;45450;-92
2022/12/02 07:03:29;;;;;;;;;34.25;23.00;;;;;7.01;70.38;101931.78;5060180;28;45364;-92
2022/12/02 07:05:58;;;;;;;;;30.75;24.25;;;;;7.02;70.31;101931.78;5065790;28;45523;-88
2022/12/02 07:08:24;;;;;;;;;30.00;26.25;;;;;7.03;70.25;101936.09;5036826;28;48451;-91
2022/12/02 07:10:49;;;;;;;;;37.50;26.75;;;;;7.04;70.48;101922.31;5059845;28;46276;-92
2022/12/02 07:13:20;;;;;;;;;32.50;26.00;;;;;7.05;70.06;101924.03;5058427;28;45324;-90
2022/12/02 07:15:46;;;;;;;;;28.50;19.75;;;;;7.03;70.06;101919.72;5057958;28;45527;-92
2022/12/02 07:18:17;;;;;;;;;28.25;25.25;;;;;7.05;69.93;101923.16;5041046;28;59100;-92
2022/12/02 07:20:46;;;;;;;;;42.00;27.50;;;;;7.03;70.07;101930.06;5076085;28;45304;-93
2022/12/02 07:23:26;;;;;;;;;31.00;20.50;;;;;7.01;70.31;101931.78;5059415;28;45368;-93
2022/12/02 07:25:53;;;;;;;;;33.75;25.50;;;;;6.95;69.88;101927.44;5054088;28;45245;-93
2022/12/02 07:28:34;;;;;;;;;38.75;28.25;;;;;6.92;70.31;101925.69;5043273;28;47113;-92
2022/12/02 07:31:12;;;;;;;;;37.25;22.00;;;;;6.95;70.13;101924.84;5060243;28;45893;-94
2022/12/02 07:33:38;;;;;;;;;39.75;29.00;;;;;6.95;70.38;101924.84;5060353;28;45465;-93
2022/12/02 07:36:03;;;;;;;;;40.00;27.25;;;;;6.93;70.52;101919.66;5059597;28;45577;-95
2022/12/02 07:38:29;;;;;;;;;45.75;29.75;;;;;6.92;70.46;101917.06;5059288;28;47287;-92
2022/12/02 07:40:54;;;;;;;;;50.25;22.75;;;;;6.88;70.37;101930.84;5061553;28;58401;-90
2022/12/02 07:43:19;;;;;;;;;38.25;29.00;;;;;6.86;70.15;101935.16;5058573;28;51707;-92
2022/12/02 07:45:45;;;;;;;;;32.25;23.50;;;;;6.85;70.90;101929.09;5077585;28;45300;-91
2022/12/02 07:48:12;;;;;;;;;35.25;22.75;;;;;6.83;70.43;101924.78;5058319;28;47108;-90
2022/12/02 07:50:48;;;;;;;;;31.75;23.75;;;;;6.80;70.41;101925.63;5075787;28;45801;-91
2022/12/02 07:53:13;;;;;;;;;36.50;28.75;;;;;6.78;70.75;101924.75;5060450;28;45366;-89
2022/12/02 07:55:38;;;;;;;;;43.25;28.25;;;;;6.81;70.95;101917.00;5076995;28;48518;-92
2022/12/02 07:58:06;;;;;;;;;42.00;29.75;;;;;6.84;70.63;101923.94;5040963;28;55968;-93
2022/12/02 08:00:31;;;;;;;;;33.75;24.25;;;;;6.84;70.61;101926.53;5066581;27;45325;-93
2022/12/02 08:02:57;;;;;;;;;35.50;26.50;;;;;6.85;70.76;101926.50;5066060;28;45401;-93
2022/12/02 08:05:23;;;;;;;;;36.00;24.25;;;;;6.83;70.46;101932.53;5058513;28;45382;-92
2022/12/02 08:07:49;;;;;;;;;42.25;29.00;;;;;6.82;70.70;101931.69;5042472;28;48561;-93
2022/12/02 08:10:15;;;;;;;;;28.25;18.00;;;;;6.79;71.00;101926.47;5058661;28;45776;-94
2022/12/02 08:12:41;;;;;;;;;43.50;26.25;;;;;6.80;71.05;101928.22;5074095;28;45426;-93
2022/12/02 08:15:09;;;;;;;;;35.75;31.50;;;;;6.82;70.86;101920.47;5059945;28;45412;-93
2022/12/02 08:17:35;;;;;;;;;35.25;27.00;;;;;6.79;71.17;101924.75;5059490;28;47151;-92
2022/12/02 08:20:00;;;;;;;;;39.00;27.50;;;;;6.78;71.02;101925.63;5059222;28;46039;-93
2022/12/02 08:22:26;;;;;;;;;47.00;30.00;;;;;6.83;70.92;101930.81;5059328;28;45380;-92
2022/12/02 08:24:51;;;;;;;;;43.25;30.25;;;;;6.84;71.06;101924.78;5059434;28;45207;-92
2022/12/02 08:27:17;;;;;;;;;41.00;28.75;;;;;6.84;70.74;101924.78;5058685;28;46195;-94
2022/12/02 08:29:42;;;;;;;;;44.25;28.00;;;;;6.84;70.70;101935.13;5077235;28;45151;-93
2022/12/02 08:32:08;;;;;;;;;32.75;24.75;;;;;6.82;70.65;101936.00;5059376;28;45357;-92
2022/12/02 08:34:33;;;;;;;;;35.50;24.75;;;;;6.77;71.06;101931.63;5053470;28;45557;-92
2022/12/02 08:36:58;;;;;;;;;29.75;22.50;;;;;6.76;71.16;101929.03;5039339;28;48176;-92
2022/12/02 08:39:33;;;;;;;;;33.00;19.50;;;;;6.77;70.91;101928.19;5038508;28;45440;-92
2022/12/02 08:41:59;;;;;;;;;38.75;23.75;;;;;6.77;70.94;101925.59;5055384;28;45443;-92
2022/12/02 08:44:33;;;;;;;;;45.50;28.50;;;;;6.80;71.02;101923.03;5055423;28;45549;-92
2022/12/02 08:46:59;;;;;;;;;37.25;24.00;;;;;6.83;71.42;101932.53;5079316;27;47225;-92
2022/12/02 08:49:24;;;;;;;;;32.50;28.75;;;;;6.85;71.41;101934.25;5082440;27;45709;-91
2022/12/02 08:51:50;;;;;;;;;40.00;30.00;;;;;6.85;71.37;101923.91;5082255;27;45406;-92
2022/12/02 08:54:15;;;;;;;;;47.00;32.25;;;;;6.90;71.36;101930.00;5065784;27;45312;-92
2022/12/02 08:56:42;;;;;;;;;35.00;27.00;;;;;6.94;71.54;101936.06;5082456;27;47449;-92
2022/12/02 08:59:10;;;;;;;;;46.50;34.00;;;;;6.98;71.33;101923.16;5065201;27;45447;-92
2022/12/02 09:01:35;;;;;;;;;37.75;27.75;;;;;6.99;71.41;101918.81;5082578;27;45346;-92
2022/12/02 09:04:01;;;;;;;;;37.00;27.75;;;;;7.00;71.29;101917.09;5082431;27;45409;-92
2022/12/02 09:06:26;;;;;;;;;44.50;29.00;;;;;7.03;71.08;101919.72;5065453;27;48172;-92
2022/12/02 09:08:52;;;;;;;;;46.75;33.75;;;;;7.02;71.09;101910.19;5064687;27;59494;-92
2022/12/02 09:11:17;;;;;;;;;41.25;29.50;;;;;7.04;71.13;101909.38;5071930;28;51504;-92
2022/12/02 09:13:43;;;;;;;;;43.00;30.25;;;;;7.03;70.89;101917.13;5079786;28;45615;-91
2022/12/02 09:16:08;;;;;;;;;51.25;32.50;;;;;7.01;71.53;101918.84;5044931;28;53511;-92
2022/12/02 09:18:33;;;;;;;;;43.50;31.25;;;;;7.01;71.09;101916.25;5061294;28;45313;-93
2022/12/02 09:20:59;;;;;;;;;35.50;28.50;;;;;6.98;71.13;101915.38;5061970;28;45428;-92
2022/12/02 09:23:24;;;;;;;;;50.00;32.25;;;;;6.97;70.82;101907.59;5079842;28;45272;-92
2022/12/02 09:25:50;;;;;;;;;43.75;28.00;;;;;6.99;70.81;101916.25;5061748;28;47055;-92
2022/12/02 09:28:22;;;;;;;;;44.00;30.00;;;;;6.96;70.76;101904.16;5061667;28;45378;-92
2022/12/02 09:30:48;;;;;;;;;51.25;31.75;;;;;6.96;70.97;101904.16;5078447;28;45293;-91
2022/12/02 09:33:14;;;;;;;;;44.00;29.75;;;;;7.00;70.91;101914.50;5061446;28;45403;-92
2022/12/02 09:35:39;;;;;;;;;38.25;26.75;;;;;7.02;71.17;101911.09;5061760;28;45565;-92
2022/12/02 09:38:11;;;;;;;;;35.00;27.00;;;;;7.03;71.16;101909.34;5078005;28;45549;-92
2022/12/02 09:40:36;;;;;;;;;36.75;27.75;;;;;7.03;70.85;101912.78;5061271;27;45317;-92
2022/12/02 09:43:04;;;;;;;;;32.50;25.75;;;;;7.05;70.99;101908.50;5081252;27;45434;-92
2022/12/02 09:45:30;;;;;;;;;47.25;33.00;;;;;7.11;71.29;101899.88;5081245;27;49446;-91
2022/12/02 09:48:12;;;;;;;;;42.50;29.25;;;;;7.14;70.97;101890.41;5063538;27;46081;-92
2022/12/02 09:50:39;;;;;;;;;48.75;28.50;;;;;7.19;71.19;101895.63;5064470;27;45417;-91
2022/12/02 09:53:06;;;;;;;;;30.00;23.50;;;;;7.25;71.13;101899.94;5064751;27;45479;-92
2022/12/02 09:55:32;;;;;;;;;47.50;29.50;;;;;7.26;70.49;101887.00;5064787;27;46266;-91
2022/12/02 09:58:13;;;;;;;;;45.00;32.00;;;;;7.26;70.58;101891.31;5063903;27;45822;-91
2022/12/02 10:00:39;;;;;;;;;47.75;30.25;;;;;7.30;70.57;101898.22;5098856;27;45412;-92
2022/12/02 10:03:05;;;;;;;;;28.50;26.00;;;;;7.26;70.58;101884.41;5081913;27;45434;-91
2022/12/02 10:05:31;;;;;;;;;47.50;36.75;;;;;7.25;70.45;101882.69;5064242;27;47324;-91
2022/12/02 10:07:58;;;;;;;;;42.00;32.00;;;;;7.25;70.26;101887.84;5063982;27;45509;-91
2022/12/02 10:10:25;;;;;;;;;36.00;31.75;;;;;7.24;70.07;101893.03;5079173;27;45419;-91
2022/12/02 10:12:51;;;;;;;;;43.00;32.25;;;;;7.20;70.29;101886.97;5044206;28;45242;-91
2022/12/02 10:15:21;;;;;;;;;37.75;31.25;;;;;7.18;70.44;101879.19;5043809;28;47100;-91
2022/12/02 10:17:47;;;;;;;;;46.25;28.75;;;;;7.17;70.29;101887.84;5060532;28;45801;-91
2022/12/02 10:20:19;;;;;;;;;54.50;32.50;;;;;7.12;69.91;101888.69;5060818;28;45418;-91
2022/12/02 10:23:06;;;;;;;;;46.00;34.50;;;;;7.07;70.39;101896.41;5078597;28;45414;-91
2022/12/02 10:25:32;;;;;;;;;39.00;27.75;;;;;7.06;70.42;101888.66;5060963;28;46865;-91
2022/12/02 10:27:58;;;;;;;;;45.75;33.75;;;;;7.08;70.67;101869.69;5060582;28;45464;-91
2022/12/02 10:30:25;;;;;;;;;44.00;30.25;;;;;7.16;70.70;101875.72;5060355;28;45363;-91
2022/12/02 10:33:02;;;;;;;;;43.50;33.50;;;;;7.21;70.37;101870.59;5060887;28;45559;-91
2022/12/02 10:35:28;;;;;;;;;49.75;33.25;;;;;7.17;69.97;101864.53;5043579;28;46216;-92
2022/12/02 10:37:54;;;;;;;;;51.25;30.25;;;;;7.16;70.34;101867.97;5043607;28;45733;-91
2022/12/02 10:40:21;;;;;;;;;46.50;30.25;;;;;7.20;70.65;101865.41;5060174;28;45424;-91
2022/12/02 10:42:47;;;;;;;;;45.50;34.75;;;;;7.27;70.57;101868.00;5078353;28;45427;-90
2022/12/02 10:45:17;;;;;;;;;45.50;29.50;;;;;7.33;70.31;101857.66;5043468;28;46982;-91
2022/12/02 10:47:42;;;;;;;;;38.00;28.00;;;;;7.40;69.90;101850.78;5078544;28;45240;-91
2022/12/02 10:50:22;;;;;;;;;50.25;33.00;;;;;7.43;69.75;101847.31;5060619;28;45250;-91
2022/12/02 10:52:50;;;;;;;;;45.25;33.75;;;;;7.40;69.52;101849.91;5060232;28;45587;-91
2022/12/02 10:55:17;;;;;;;;;44.25;26.75;;;;;7.37;69.86;101842.97;5041907;28;48499;-86
2022/12/02 10:57:43;;;;;;;;;46.50;31.25;;;;;7.31;69.75;101842.97;5042869;28;45822;-88
2022/12/02 11:00:23;;;;;;;;;47.00;33.25;;;;;7.26;70.16;101842.97;5043299;28;45412;-88
2022/12/02 11:02:50;;;;;;;;;40.75;33.25;;;;;7.25;69.84;101835.22;5043635;28;45254;-88
2022/12/02 11:05:17;;;;;;;;;46.50;32.75;;;;;7.23;69.96;101835.19;5042737;28;47577;-88
2022/12/02 11:08:03;;;;;;;;;41.50;32.00;;;;;7.23;69.83;101842.09;5060078;28;45360;-88
2022/12/02 11:10:39;;;;;;;;;37.75;25.00;;;;;7.25;70.12;101836.06;5039074;28;45308;-91
2022/12/02 11:13:26;;;;;;;;;39.75;30.75;;;;;7.22;69.93;101828.28;5059290;28;45451;-89
2022/12/02 11:15:52;;;;;;;;;52.00;36.50;;;;;7.26;69.73;101823.97;5059248;28;47707;-88
2022/12/02 11:18:23;;;;;;;;;51.00;33.25;;;;;7.30;69.75;101820.50;5059144;28;45380;-88
2022/12/02 11:20:56;;;;;;;;;38.25;29.25;;;;;7.29;69.82;101819.66;5059026;28;45356;-88
2022/12/02 11:23:29;;;;;;;;;45.00;36.25;;;;;7.32;69.41;101821.41;5059573;28;45473;-88